createdAt,value
2023-01-08T10:36:01.181Z,31.80
2023-01-08T10:38:51.945Z,43.70
2023-01-08T10:41:22.522Z,26.40
2023-01-08T10:43:58.646Z,36.60
2023-01-08T10:46:37.173Z,28.30
2023-01-08T10:49:12.126Z,40.70
2023-01-08T10:51:55.914Z,27.20
2023-01-08T10:54:56.758Z,28.70
2023-01-08T10:57:28.339Z,25.50
2023-01-08T10:59:58.323Z,27.60
2023-01-08T11:02:39.480Z,38.70
2023-01-08T11:05:09.234Z,34.50
2023-01-08T11:07:37.286Z,29.00
2023-01-08T11:10:07.651Z,28.00
2023-01-08T11:12:40.378Z,32.70
2023-01-08T11:15:14.972Z,33.00
2023-01-08T11:17:45.251Z,28.30
2023-01-08T11:20:28.642Z,30.50
2023-01-08T11:23:23.976Z,31.00
2023-01-08T11:26:17.801Z,35.90
2023-01-08T11:28:48.109Z,28.90
2023-01-08T11:31:21.813Z,40.10
2023-01-08T11:33:56.416Z,48.60
2023-01-08T11:36:27.411Z,43.00
2023-01-08T11:38:57.249Z,47.50
2023-01-08T11:41:36.092Z,35.00
2023-01-08T11:44:50.577Z,35.80
2023-01-08T11:47:47.947Z,32.30
2023-01-08T11:51:01.372Z,31.00
2023-01-08T11:53:37.163Z,26.10
2023-01-08T11:56:29.432Z,37.00
2023-01-08T11:59:36.734Z,37.00
2023-01-08T12:02:26.713Z,40.40
2023-01-08T12:04:59.998Z,31.40
2023-01-08T12:08:10.936Z,26.50
2023-01-08T12:11:07.366Z,20.80
2023-01-08T12:14:16.971Z,34.10
2023-01-08T12:16:54.620Z,29.80
2023-01-08T12:20:03.136Z,30.80
2023-01-08T12:22:42.642Z,35.20
2023-01-08T12:25:39.174Z,32.50
2023-01-08T12:28:32.937Z,25.70
2023-01-08T12:31:37.977Z,33.30
2023-01-08T12:34:14.854Z,33.80
2023-01-08T12:36:45.062Z,35.50
2023-01-08T12:39:14.575Z,31.80
2023-01-08T12:41:43.555Z,48.30
2023-01-08T12:44:13.035Z,36.90
2023-01-08T12:46:48.767Z,36.70
2023-01-08T12:49:30.449Z,33.70
2023-01-08T12:52:16.192Z,45.00
2023-01-08T12:54:55.039Z,34.20
2023-01-08T12:57:33.041Z,32.60
2023-01-08T13:00:06.374Z,34.20
2023-01-08T13:02:53.315Z,35.70
2023-01-08T13:05:27.424Z,46.30
2023-01-08T13:07:57.340Z,31.20
2023-01-08T13:10:36.902Z,34.00
2023-01-08T13:13:08.728Z,34.30
2023-01-08T13:15:37.257Z,35.80
2023-01-08T13:18:16.783Z,32.70
2023-01-08T13:20:55.803Z,30.60
2023-01-08T13:23:25.738Z,42.60
2023-01-08T13:25:53.918Z,35.50
2023-01-08T13:28:24.686Z,47.30
2023-01-08T13:30:53.163Z,34.00
2023-01-08T13:33:40.147Z,32.80
2023-01-08T13:36:17.953Z,38.40
2023-01-08T13:38:47.075Z,28.00
2023-01-08T13:41:26.367Z,28.20
2023-01-08T13:44:02.041Z,38.70
2023-01-08T13:46:34.783Z,36.70
2023-01-08T13:49:08.082Z,31.10
2023-01-08T13:51:38.706Z,35.60
2023-01-08T13:54:38.164Z,38.80
2023-01-08T13:57:15.399Z,35.70
2023-01-08T13:59:53.610Z,45.40
2023-01-08T14:02:24.240Z,24.00
2023-01-08T14:04:55.234Z,31.40
2023-01-08T14:07:23.779Z,40.90
2023-01-08T14:09:52.166Z,30.10
2023-01-08T14:12:24.315Z,25.10
2023-01-08T14:14:59.772Z,25.50
2023-01-08T14:17:35.579Z,38.20
2023-01-08T14:20:12.144Z,40.30
2023-01-08T14:22:43.075Z,26.20
2023-01-08T14:25:22.282Z,24.40
2023-01-08T14:28:01.588Z,23.60
2023-01-08T14:30:32.810Z,32.10
2023-01-08T14:33:01.025Z,30.10
2023-01-08T14:35:37.614Z,25.50
2023-01-08T14:38:12.195Z,25.80
2023-01-08T14:40:46.877Z,32.10
2023-01-08T14:43:20.054Z,31.70
2023-01-08T14:45:49.381Z,25.80
2023-01-08T14:48:40.159Z,31.50
2023-01-08T14:51:14.551Z,47.40
2023-01-08T14:53:45.897Z,32.90
2023-01-08T14:56:20.923Z,32.80
2023-01-08T14:59:00.610Z,33.50
2023-01-08T15:01:31.168Z,39.60
2023-01-08T15:04:19.994Z,34.90
2023-01-08T15:06:48.668Z,39.60
2023-01-08T15:09:24.141Z,30.10
2023-01-08T15:11:58.064Z,46.10
2023-01-08T15:14:28.629Z,44.10
2023-01-08T15:16:59.048Z,55.20
2023-01-08T15:19:29.648Z,65.70
2023-01-08T15:21:59.141Z,34.40
2023-01-08T15:24:32.393Z,36.40
2023-01-08T15:27:00.261Z,41.90
2023-01-08T15:29:33.190Z,39.60
2023-01-08T15:32:23.246Z,34.20
2023-01-08T15:34:51.188Z,41.70
2023-01-08T15:37:20.449Z,32.20
2023-01-08T15:39:50.129Z,40.00
2023-01-08T15:42:47.359Z,48.60
2023-01-08T15:45:16.927Z,58.00
2023-01-08T15:47:46.732Z,58.90
2023-01-08T18:01:33.617Z,67.90
2023-01-08T18:04:03.267Z,67.60
2023-01-08T18:06:30.731Z,57.90
2023-01-08T18:09:00.134Z,61.20
2023-01-08T18:11:28.317Z,62.70
2023-01-08T18:14:03.988Z,62.10
2023-01-08T18:16:38.394Z,48.80
2023-01-08T18:19:08.388Z,51.70
2023-01-08T18:21:40.154Z,46.80
2023-01-08T18:24:09.347Z,49.80
2023-01-08T18:26:37.634Z,73.80
2023-01-08T18:29:07.811Z,65.00
2023-01-08T18:31:45.836Z,63.90
2023-01-08T18:34:14.784Z,53.30
2023-01-08T18:36:54.779Z,49.20
2023-01-08T18:39:29.522Z,70.20
2023-01-08T18:42:19.258Z,63.50
2023-01-08T18:44:56.220Z,58.00
2023-01-08T18:47:29.972Z,62.30
2023-01-08T18:50:06.387Z,62.30
2023-01-08T18:52:46.256Z,60.20
2023-01-08T18:55:17.925Z,54.40
2023-01-08T18:58:00.337Z,63.60
2023-01-08T19:00:38.096Z,55.40
2023-01-08T19:03:17.266Z,49.10
2023-01-08T19:05:58.266Z,62.70
2023-01-08T19:08:25.800Z,54.90
2023-01-08T19:10:57.491Z,69.00
2023-01-08T19:13:27.424Z,56.40
2023-01-08T19:15:55.647Z,55.30
2023-01-08T19:18:29.684Z,52.70
2023-01-08T19:21:00.163Z,57.10
2023-01-08T19:23:40.054Z,51.10
2023-01-08T19:26:10.043Z,49.70
2023-01-08T19:28:38.692Z,40.80
2023-01-08T19:31:18.318Z,48.20
2023-01-08T19:33:46.591Z,55.60
2023-01-08T19:36:16.157Z,41.70
2023-01-08T19:38:46.785Z,76.90
2023-01-08T19:41:33.716Z,46.10
2023-01-08T19:44:02.422Z,51.80
2023-01-08T19:46:34.965Z,46.20
2023-01-08T19:49:08.635Z,37.80
2023-01-08T19:51:36.469Z,45.50
2023-01-08T19:54:11.551Z,44.40
2023-01-08T19:56:39.133Z,42.80
2023-01-08T19:59:08.025Z,45.70
2023-01-08T20:01:41.428Z,39.40
2023-01-08T20:04:10.740Z,39.90
2023-01-08T20:06:38.663Z,46.60
2023-01-08T20:09:08.603Z,47.00
2023-01-08T20:11:37.468Z,44.20
2023-01-08T20:14:05.514Z,45.80
2023-01-08T20:16:34.611Z,48.50
2023-01-08T20:19:04.009Z,40.00
2023-01-08T20:21:34.302Z,48.00
2023-01-08T20:24:09.311Z,38.70
2023-01-08T20:26:38.398Z,43.90
2023-01-08T20:29:06.691Z,45.80
2023-01-08T20:31:35.712Z,44.70
2023-01-08T20:34:06.742Z,35.20
2023-01-08T20:36:36.977Z,30.80
2023-01-08T20:39:07.329Z,47.30
2023-01-08T20:41:36.697Z,34.30
2023-01-08T20:44:09.043Z,43.60
2023-01-08T20:46:48.744Z,35.70
2023-01-08T20:49:19.953Z,36.90
2023-01-08T20:52:06.935Z,35.40
2023-01-08T20:54:34.555Z,35.40
2023-01-08T20:57:01.903Z,38.60
2023-01-08T20:59:30.342Z,35.10
2023-01-08T21:02:01.351Z,31.60
2023-01-08T21:04:28.594Z,38.20
2023-01-08T21:06:59.709Z,29.70
2023-01-08T21:09:34.266Z,36.10
2023-01-08T21:12:03.316Z,31.50
2023-01-08T21:14:32.172Z,34.50
2023-01-08T21:17:01.682Z,33.00
2023-01-08T21:19:32.442Z,31.60
2023-01-08T21:21:59.979Z,29.30
2023-01-08T21:24:33.982Z,28.70
2023-01-08T21:27:03.308Z,38.40
2023-01-08T21:29:31.413Z,27.10
2023-01-08T21:32:00.674Z,26.90
2023-01-08T21:34:34.807Z,31.40
2023-01-08T21:37:08.448Z,24.40
2023-01-08T21:39:37.175Z,28.20
2023-01-08T21:42:23.884Z,20.60
2023-01-08T21:45:09.940Z,28.40
2023-01-08T21:47:38.359Z,24.70
2023-01-08T21:50:12.519Z,31.10
2023-01-08T21:52:58.916Z,33.50
2023-01-08T21:55:26.460Z,32.20
2023-01-08T21:57:54.813Z,26.50
2023-01-08T22:00:24.511Z,34.20
2023-01-08T22:02:56.883Z,34.70
2023-01-08T22:05:27.458Z,32.10
2023-01-08T22:07:58.453Z,33.10
2023-01-08T22:10:28.171Z,37.30
2023-01-08T22:13:01.515Z,35.80
2023-01-08T22:15:39.528Z,26.60
2023-01-08T22:18:31.767Z,24.70
2023-01-08T22:21:12.990Z,26.60
2023-01-08T22:23:49.877Z,25.00
2023-01-08T22:26:22.855Z,36.00
2023-01-08T22:28:55.456Z,33.60
2023-01-08T22:31:27.874Z,36.30
2023-01-08T22:33:59.248Z,32.20
2023-01-08T22:36:28.908Z,39.30
2023-01-08T22:38:57.026Z,34.50
2023-01-08T22:41:25.216Z,34.70
2023-01-08T22:44:00.884Z,29.00
2023-01-08T22:46:32.407Z,29.90
2023-01-08T22:49:00.409Z,27.10
2023-01-08T22:51:27.976Z,28.70
2023-01-08T22:53:56.145Z,32.90
2023-01-08T22:56:23.580Z,31.90
2023-01-08T22:58:51.285Z,26.70
2023-01-08T23:01:23.139Z,28.30
2023-01-08T23:03:50.981Z,37.20
2023-01-08T23:06:19.588Z,25.20
2023-01-08T23:08:47.025Z,33.20
2023-01-08T23:11:17.616Z,28.60
2023-01-08T23:13:45.034Z,23.80
2023-01-08T23:16:14.690Z,34.20
2023-01-08T23:18:42.627Z,30.90
2023-01-08T23:21:16.077Z,30.20
2023-01-08T23:23:44.623Z,36.60
2023-01-08T23:26:23.271Z,34.70
2023-01-08T23:28:52.577Z,37.70
2023-01-08T23:31:23.177Z,28.20
2023-01-08T23:33:51.101Z,33.10
2023-01-08T23:36:20.810Z,32.50
2023-01-08T23:38:52.857Z,29.50
2023-01-08T23:41:25.457Z,33.90
2023-01-08T23:44:02.986Z,30.90
2023-01-08T23:46:31.281Z,31.00
2023-01-08T23:48:59.938Z,30.20
2023-01-08T23:51:27.608Z,32.70
2023-01-08T23:53:54.719Z,40.40
2023-01-08T23:56:28.615Z,27.80
2023-01-08T23:58:56.901Z,34.20
